Time;durP1;ratioP1;P1;durP2;ratioP2;P2;SDS_P1;SDS_P2;PMS_P1;PMS_P2;Temp;Humidity;BMP_temperature;BMP_pressure;BME280_temperature;BME280_humidity;BME280_pressure;Samples;Min_cycle;Max_cycle;Signal;HPM_P1;HPM_P2
2023/01/14 00:01:49;;;;;;;19.52;3.08;;;6.60;99.90;;;;;;5054911;28;20041;-81
2023/01/14 00:04:15;;;;;;;19.10;3.15;;;6.60;99.90;;;;;;5053308;28;20037;-80
2023/01/14 00:06:40;;;;;;;14.90;3.10;;;6.60;99.90;;;;;;5053667;28;20041;-81
2023/01/14 00:09:10;;;;;;;16.23;2.67;;;6.60;99.90;;;;;;5053059;28;20044;-81
2023/01/14 00:11:51;;;;;;;21.33;2.88;;;6.70;99.90;;;;;;5053351;28;20068;-81
2023/01/14 00:14:23;;;;;;;17.48;3.63;;;6.70;99.90;;;;;;5053211;28;20486;-81
2023/01/14 00:16:50;;;;;;;16.63;2.60;;;6.70;99.90;;;;;;5053245;28;20036;-81
2023/01/14 00:19:16;;;;;;;17.88;2.70;;;6.80;99.90;;;;;;5053414;28;20397;-81
2023/01/14 00:21:43;;;;;;;15.07;3.03;;;6.80;99.90;;;;;;5053231;28;20135;-81
2023/01/14 00:24:10;;;;;;;14.93;3.17;;;6.80;99.90;;;;;;5052974;28;20144;-81
2023/01/14 00:26:36;;;;;;;18.02;2.63;;;6.80;99.90;;;;;;5053020;28;20076;-81
2023/01/14 00:29:02;;;;;;;17.00;2.58;;;6.80;99.90;;;;;;5052497;28;20067;-82
2023/01/14 00:31:28;;;;;;;14.73;3.00;;;6.80;99.90;;;;;;5052939;28;20032;-81
2023/01/14 00:33:55;;;;;;;16.15;2.97;;;6.70;99.90;;;;;;5052620;28;20482;-81
2023/01/14 00:36:22;;;;;;;17.15;2.50;;;6.70;99.90;;;;;;5052574;28;20041;-81
2023/01/14 00:38:48;;;;;;;16.48;4.10;;;6.70;99.90;;;;;;5036065;28;20090;-81
2023/01/14 00:41:23;;;;;;;17.30;2.65;;;6.70;99.90;;;;;;5035964;28;20131;-81
2023/01/14 00:43:52;;;;;;;15.20;2.92;;;6.70;99.90;;;;;;5052601;28;20099;-80
2023/01/14 00:46:21;;;;;;;14.60;3.28;;;6.70;99.90;;;;;;5052169;28;20536;-81
2023/01/14 00:48:47;;;;;;;19.40;2.72;;;6.80;99.90;;;;;;5052251;28;20048;-81
2023/01/14 00:51:13;;;;;;;20.92;3.30;;;6.80;99.90;;;;;;5052427;28;20072;-82
2023/01/14 00:53:40;;;;;;;14.73;2.65;;;6.90;99.90;;;;;;5052509;28;20045;-81
2023/01/14 00:56:06;;;;;;;17.25;3.10;;;7.00;99.90;;;;;;5052528;28;20395;-80
2023/01/14 00:58:32;;;;;;;17.38;2.75;;;7.00;99.90;;;;;;5052315;28;20063;-80
2023/01/14 01:00:58;;;;;;;15.32;2.28;;;7.00;99.90;;;;;;5052532;28;20040;-80
2023/01/14 01:03:24;;;;;;;17.92;2.80;;;7.00;99.90;;;;;;5052963;28;20033;-81
2023/01/14 01:05:50;;;;;;;13.02;2.47;;;7.00;99.90;;;;;;5046473;28;20041;-81
2023/01/14 01:08:19;;;;;;;15.60;2.55;;;7.00;99.90;;;;;;5015534;28;20038;-81
2023/01/14 01:10:47;;;;;;;18.58;2.65;;;7.00;99.90;;;;;;5039481;28;20048;-81
2023/01/14 01:13:13;;;;;;;16.38;2.72;;;7.00;99.90;;;;;;5052364;28;20045;-81
2023/01/14 01:15:40;;;;;;;13.52;2.90;;;7.00;99.90;;;;;;5052192;28;20120;-81
2023/01/14 01:18:06;;;;;;;13.48;2.53;;;7.00;99.90;;;;;;5052033;28;20039;-81
2023/01/14 01:20:33;;;;;;;15.18;3.03;;;7.00;99.90;;;;;;5051860;28;20029;-81
2023/01/14 01:22:58;;;;;;;21.70;3.03;;;7.00;99.90;;;;;;5051960;28;20052;-81
2023/01/14 01:25:24;;;;;;;20.05;2.47;;;6.90;99.90;;;;;;5051994;28;20044;-81
2023/01/14 01:27:50;;;;;;;17.73;2.78;;;7.00;99.90;;;;;;5051664;28;20037;-81
2023/01/14 01:30:16;;;;;;;15.00;2.53;;;6.80;99.90;;;;;;5051640;28;20166;-81
2023/01/14 01:32:41;;;;;;;17.65;3.00;;;6.80;99.90;;;;;;5051750;28;20524;-80
2023/01/14 01:35:07;;;;;;;13.07;2.88;;;6.80;99.90;;;;;;5051357;28;20106;-82
2023/01/14 01:37:33;;;;;;;16.80;2.75;;;6.70;99.90;;;;;;5051314;28;20048;-81
2023/01/14 01:39:58;;;;;;;15.68;2.35;;;6.70;99.90;;;;;;5051189;28;20328;-81
2023/01/14 01:42:28;;;;;;;14.35;2.92;;;6.60;99.90;;;;;;5051112;28;20517;-81
2023/01/14 01:44:53;;;;;;;14.82;2.70;;;6.60;99.90;;;;;;5051378;28;20086;-80
2023/01/14 01:47:22;;;;;;;12.75;2.50;;;6.60;99.90;;;;;;5051068;28;20488;-81
2023/01/14 01:49:48;;;;;;;16.00;2.13;;;6.50;99.90;;;;;;5050190;28;20499;-81
2023/01/14 01:52:18;;;;;;;15.23;2.90;;;6.50;99.90;;;;;;5050761;28;20064;-81
2023/01/14 01:55:01;;;;;;;15.07;2.90;;;6.50;99.90;;;;;;5051097;28;20073;-81
2023/01/14 01:57:27;;;;;;;19.30;2.50;;;6.40;99.90;;;;;;5050728;28;20051;-80
2023/01/14 01:59:57;;;;;;;19.77;3.25;;;6.40;99.90;;;;;;5051281;28;20040;-81
2023/01/14 02:02:24;;;;;;;16.02;3.05;;;6.40;99.90;;;;;;5050845;28;20051;-81
2023/01/14 02:04:50;;;;;;;14.75;2.80;;;6.40;99.90;;;;;;5050956;28;20079;-80
2023/01/14 02:07:22;;;;;;;21.35;2.70;;;6.40;99.90;;;;;;5050999;28;20458;-80
2023/01/14 02:09:50;;;;;;;17.23;2.63;;;6.40;99.90;;;;;;5050734;28;20037;-81
2023/01/14 02:12:36;;;;;;;17.13;2.65;;;6.50;99.90;;;;;;5050789;28;20037;-81
2023/01/14 02:15:30;;;;;;;12.18;2.28;;;6.50;99.90;;;;;;5033767;28;20041;-81
2023/01/14 02:18:25;;;;;;;19.10;3.03;;;6.50;99.90;;;;;;5050359;28;20303;-81
2023/01/14 02:21:03;;;;;;;17.90;3.15;;;6.60;99.90;;;;;;5050933;28;20115;-81
2023/01/14 02:23:58;;;;;;;16.45;2.40;;;6.50;99.90;;;;;;5034150;28;20075;-81
2023/01/14 02:26:45;;;;;;;18.63;3.20;;;6.50;99.90;;;;;;5050709;28;20542;-81
2023/01/14 02:29:35;;;;;;;19.20;2.47;;;6.50;99.90;;;;;;5050277;28;20047;-81
2023/01/14 02:32:26;;;;;;;18.50;2.75;;;6.40;99.90;;;;;;5049781;28;22349;-81
2023/01/14 02:35:18;;;;;;;14.50;2.70;;;6.40;99.90;;;;;;5033030;28;20041;-82
2023/01/14 02:38:03;;;;;;;16.08;2.75;;;6.40;99.90;;;;;;5050139;28;20491;-81
2023/01/14 02:40:47;;;;;;;15.23;2.60;;;6.30;99.90;;;;;;5050903;28;20398;-81
2023/01/14 02:46:14;;;;;;;12.25;2.97;;;6.20;99.90;;;;;;5050905;28;20051;-80
2023/01/14 02:48:40;;;;;;;18.10;2.90;;;6.20;99.90;;;;;;5049900;28;20072;-81
2023/01/14 02:51:06;;;;;;;20.17;3.30;;;6.20;99.90;;;;;;5033768;28;20045;-81
2023/01/14 02:53:32;;;;;;;12.82;2.78;;;6.20;99.90;;;;;;5050049;28;20037;-81
2023/01/14 02:55:57;;;;;;;16.77;2.88;;;6.10;99.90;;;;;;5033649;28;20037;-81
2023/01/14 02:59:00;;;;;;;19.23;3.20;;;6.10;99.90;;;;;;5049832;28;20063;-81
2023/01/14 03:01:58;;;;;;;18.95;2.72;;;6.10;99.90;;;;;;5050236;28;20083;-81
2023/01/14 03:04:44;;;;;;;15.38;2.55;;;6.10;99.90;;;;;;5050111;28;20045;-81
2023/01/14 03:07:30;;;;;;;18.23;2.38;;;6.00;99.90;;;;;;5049919;28;20040;-81
2023/01/14 03:10:21;;;;;;;15.10;3.03;;;6.00;99.90;;;;;;5033346;28;20037;-81
2023/01/14 03:13:03;;;;;;;20.38;2.92;;;6.00;99.90;;;;;;5049807;28;20518;-81
2023/01/14 03:15:43;;;;;;;18.48;2.88;;;6.00;99.90;;;;;;5049893;28;20045;-81
2023/01/14 03:18:28;;;;;;;12.80;3.05;;;6.00;99.90;;;;;;5049699;28;20044;-80
2023/01/14 03:21:01;;;;;;;16.15;2.60;;;6.00;99.90;;;;;;5050183;28;20065;-81
2023/01/14 03:23:30;;;;;;;15.75;2.85;;;6.00;99.90;;;;;;5049993;28;20414;-81
2023/01/14 03:25:58;;;;;;;19.98;2.42;;;6.00;99.90;;;;;;5049635;28;20048;-81
2023/01/14 03:28:30;;;;;;;15.75;2.40;;;6.00;99.90;;;;;;5051580;28;20049;-81
2023/01/14 03:31:00;;;;;;;15.90;2.88;;;6.00;99.90;;;;;;5053765;28;20514;-81
2023/01/14 03:33:52;;;;;;;22.02;3.95;;;5.90;99.90;;;;;;5053767;28;20032;-81
2023/01/14 03:36:20;;;;;;;14.48;2.85;;;5.90;99.90;;;;;;5054013;28;20029;-80
2023/01/14 03:38:52;;;;;;;15.75;2.45;;;5.90;99.90;;;;;;5037247;28;20036;-80
2023/01/14 03:44:17;;;;;;;18.17;2.45;;;5.90;99.90;;;;;;5053803;28;20045;-81
2023/01/14 03:46:43;;;;;;;15.32;2.22;;;5.80;99.90;;;;;;5053653;28;20087;-81
2023/01/14 03:49:08;;;;;;;17.15;2.40;;;5.80;99.90;;;;;;5053710;28;20080;-80
2023/01/14 03:51:49;;;;;;;17.02;2.53;;;5.90;99.90;;;;;;5053949;28;20048;-80
2023/01/14 03:54:31;;;;;;;15.15;2.72;;;5.80;99.90;;;;;;5036931;28;20525;-80
2023/01/14 03:57:10;;;;;;;19.50;2.78;;;5.70;99.90;;;;;;5053432;28;20253;-80
2023/01/14 03:59:58;;;;;;;15.05;2.83;;;5.60;99.90;;;;;;5053609;28;20041;-80
2023/01/14 04:02:25;;;;;;;21.98;3.00;;;5.60;99.90;;;;;;5039838;28;20048;-81
2023/01/14 04:04:53;;;;;;;12.82;1.90;;;5.50;99.90;;;;;;5036806;28;20049;-81
2023/01/14 04:07:19;;;;;;;17.80;2.40;;;5.60;99.90;;;;;;5053080;28;20060;-80
2023/01/14 04:09:45;;;;;;;15.70;2.85;;;5.50;99.90;;;;;;5052993;28;20041;-81
2023/01/14 04:12:10;;;;;;;14.93;2.40;;;5.50;99.90;;;;;;5052804;28;20048;-81
2023/01/14 04:17:20;;;;;;;24.42;3.30;;;5.40;99.90;;;;;;5052658;28;20041;-81
2023/01/14 04:19:45;;;;;;;19.13;2.60;;;5.40;99.90;;;;;;5052730;28;20033;-81
2023/01/14 04:22:11;;;;;;;15.00;2.72;;;5.40;99.90;;;;;;5052606;28;20052;-81
2023/01/14 04:24:36;;;;;;;18.50;2.55;;;5.40;99.90;;;;;;5052827;28;20045;-81
2023/01/14 04:27:02;;;;;;;21.90;2.60;;;5.40;99.90;;;;;;5052683;28;20443;-81
2023/01/14 04:29:27;;;;;;;13.95;2.55;;;5.30;99.90;;;;;;5052494;28;20112;-81
2023/01/14 04:31:53;;;;;;;17.77;3.17;;;5.30;99.90;;;;;;5052605;28;20447;-81
2023/01/14 04:34:18;;;;;;;13.98;2.47;;;5.30;99.90;;;;;;5052459;28;20490;-80
2023/01/14 04:36:44;;;;;;;12.55;2.67;;;5.30;99.90;;;;;;5052572;28;20033;-81
2023/01/14 04:39:09;;;;;;;13.45;2.03;;;5.40;99.90;;;;;;5051844;28;20049;-81
2023/01/14 04:44:19;;;;;;;16.63;2.35;;;5.30;99.90;;;;;;5052787;28;20421;-80
2023/01/14 04:46:45;;;;;;;12.50;2.33;;;5.30;99.90;;;;;;5052639;28;20124;-80
2023/01/14 04:49:10;;;;;;;20.20;2.90;;;5.30;99.90;;;;;;5035857;28;20072;-80
2023/01/14 04:51:36;;;;;;;12.32;2.10;;;5.30;99.90;;;;;;5052459;28;20045;-81
2023/01/14 04:54:02;;;;;;;17.45;2.38;;;5.30;99.90;;;;;;5052376;28;20187;-80
2023/01/14 04:56:27;;;;;;;15.48;2.70;;;5.30;99.90;;;;;;5048903;28;20356;-80
2023/01/14 04:58:53;;;;;;;12.55;2.20;;;5.30;99.90;;;;;;5042103;28;20048;-80
2023/01/14 05:01:18;;;;;;;16.83;2.65;;;5.30;99.90;;;;;;5052191;28;20124;-81
2023/01/14 05:03:44;;;;;;;11.65;1.83;;;5.30;99.90;;;;;;5037960;28;20032;-80
2023/01/14 05:06:09;;;;;;;16.42;2.60;;;5.30;99.90;;;;;;5052606;28;20491;-81
2023/01/14 05:08:35;;;;;;;21.73;3.05;;;5.30;99.90;;;;;;5051956;28;20053;-81
2023/01/14 05:11:00;;;;;;;15.18;2.65;;;5.30;99.90;;;;;;5052415;28;20037;-81
2023/01/14 05:13:26;;;;;;;12.60;2.38;;;5.30;99.90;;;;;;5052261;28;20044;-80
2023/01/14 05:15:51;;;;;;;16.58;3.45;;;5.30;99.90;;;;;;5051903;28;20078;-80
2023/01/14 05:18:17;;;;;;;16.88;2.20;;;5.30;99.90;;;;;;5035244;28;20095;-80
2023/01/14 05:20:44;;;;;;;18.58;3.45;;;5.30;99.90;;;;;;5051975;28;20423;-80
2023/01/14 05:23:13;;;;;;;19.00;3.35;;;5.30;99.90;;;;;;5051958;28;20044;-80
2023/01/14 05:25:38;;;;;;;18.52;3.40;;;5.30;99.90;;;;;;5051735;28;20056;-81
2023/01/14 05:28:11;;;;;;;19.67;2.47;;;5.30;99.90;;;;;;5051660;28;20045;-80
2023/01/14 05:30:37;;;;;;;20.27;2.63;;;5.30;99.90;;;;;;5052161;28;20126;-81
2023/01/14 05:33:04;;;;;;;14.77;2.40;;;5.40;99.90;;;;;;5051993;28;20068;-81
2023/01/14 05:35:31;;;;;;;15.50;2.90;;;5.30;99.90;;;;;;5052141;28;20099;-81
2023/01/14 05:37:57;;;;;;;11.07;2.92;;;5.30;99.90;;;;;;5051529;28;20529;-81
2023/01/14 05:40:23;;;;;;;18.08;2.35;;;5.30;99.90;;;;;;5035609;28;20033;-81
2023/01/14 05:45:41;;;;;;;14.65;2.72;;;5.30;99.90;;;;;;5051629;28;20068;-81
2023/01/14 05:48:10;;;;;;;;;;;5.30;99.90;;;;;;5051440;28;20533;-81
2023/01/14 05:50:37;;;;;;;14.32;2.25;;;5.20;99.90;;;;;;5051022;28;19916;-81
2023/01/14 05:53:04;;;;;;;23.33;3.22;;;5.30;99.90;;;;;;5050549;28;20037;-81
2023/01/14 05:55:30;;;;;;;15.10;2.50;;;5.30;99.90;;;;;;5051913;28;20090;-81
2023/01/14 05:58:00;;;;;;;18.77;3.13;;;5.20;99.90;;;;;;5034703;28;20415;-81
2023/01/14 06:08:35;;;;;;;22.42;3.33;;;5.30;99.90;;;;;;5050739;28;20045;-81
2023/01/14 06:11:01;;;;;;;20.23;3.42;;;5.20;99.90;;;;;;5034481;28;20058;-81
2023/01/14 06:13:26;;;;;;;19.70;3.40;;;5.30;99.90;;;;;;5050864;28;20045;-81
2023/01/14 06:15:52;;;;;;;19.02;3.47;;;5.20;99.90;;;;;;5051038;28;20494;-81
2023/01/14 06:18:23;;;;;;;16.60;3.17;;;5.30;99.90;;;;;;5051081;28;20114;-81
2023/01/14 06:20:53;;;;;;;20.35;3.15;;;5.30;99.90;;;;;;5050824;28;20067;-81
2023/01/14 06:23:22;;;;;;;22.27;3.33;;;5.30;99.90;;;;;;5050809;28;20037;-81
2023/01/14 06:25:49;;;;;;;16.85;3.20;;;5.30;99.90;;;;;;5050553;28;20063;-80
2023/01/14 06:28:16;;;;;;;18.25;3.00;;;5.30;99.90;;;;;;5034015;28;20128;-80
2023/01/14 06:30:42;;;;;;;17.50;3.58;;;5.30;99.90;;;;;;5051336;28;20037;-80
2023/01/14 06:33:09;;;;;;;24.58;4.45;;;5.40;99.90;;;;;;5050246;28;20072;-80
2023/01/14 06:35:39;;;;;;;17.33;4.22;;;5.30;99.90;;;;;;5034359;28;20036;-81
2023/01/14 06:38:04;;;;;;;18.50;3.47;;;5.30;99.90;;;;;;5050599;28;20036;-81
2023/01/14 06:40:30;;;;;;;25.85;4.18;;;5.40;99.90;;;;;;5050755;28;20517;-80
2023/01/14 06:42:56;;;;;;;18.23;3.80;;;5.30;99.90;;;;;;5050802;28;20487;-80
2023/01/14 06:45:22;;;;;;;17.88;4.18;;;5.30;99.90;;;;;;5050561;28;20041;-80
2023/01/14 06:47:48;;;;;;;26.55;5.65;;;5.30;99.90;;;;;;5050164;28;20041;-80
2023/01/14 06:50:14;;;;;;;25.52;4.57;;;5.30;99.90;;;;;;5050550;28;20040;-81
2023/01/14 06:52:39;;;;;;;17.25;4.22;;;5.20;99.90;;;;;;5050428;28;20041;-80
2023/01/14 06:55:06;;;;;;;18.70;4.57;;;5.30;99.90;;;;;;5050649;28;20033;-81
2023/01/14 06:57:31;;;;;;;26.67;5.10;;;5.20;99.90;;;;;;5033684;28;20091;-81
2023/01/14 06:59:57;;;;;;;19.10;5.20;;;5.20;99.90;;;;;;5050301;28;20033;-81
2023/01/14 07:02:22;;;;;;;25.20;5.55;;;5.20;99.90;;;;;;5050004;28;20075;-80
2023/01/14 07:04:48;;;;;;;24.17;5.25;;;5.20;99.90;;;;;;5050422;28;20131;-81
2023/01/14 07:07:13;;;;;;;24.77;5.97;;;5.30;99.90;;;;;;5050359;28;20058;-80
2023/01/14 07:09:39;;;;;;;21.65;4.78;;;5.20;99.90;;;;;;5050492;28;20036;-80
2023/01/14 07:12:05;;;;;;;22.88;5.18;;;5.20;99.90;;;;;;5050104;28;20047;-81
2023/01/14 07:14:30;;;;;;;23.10;5.40;;;5.20;99.90;;;;;;5050373;28;20068;-80
2023/01/14 07:16:56;;;;;;;24.83;5.75;;;5.30;99.90;;;;;;5050357;28;20120;-80
2023/01/14 07:19:21;;;;;;;24.85;5.82;;;5.30;99.90;;;;;;5044479;28;20431;-81
2023/01/14 07:21:47;;;;;;;24.55;5.40;;;5.30;99.90;;;;;;5026039;28;20037;-80
2023/01/14 07:24:12;;;;;;;30.30;5.47;;;5.30;99.90;;;;;;5050000;28;20434;-81
2023/01/14 07:26:38;;;;;;;24.98;5.13;;;5.40;99.90;;;;;;5049968;28;20041;-80
2023/01/14 07:29:03;;;;;;;24.27;6.18;;;5.40;99.90;;;;;;5050237;28;20045;-80
2023/01/14 07:31:29;;;;;;;29.42;5.70;;;5.40;99.90;;;;;;5033389;28;20040;-81
2023/01/14 07:33:54;;;;;;;31.55;5.68;;;5.40;99.90;;;;;;5050133;28;20037;-81
2023/01/14 07:36:20;;;;;;;22.60;4.55;;;5.40;99.90;;;;;;5050162;28;20033;-81
2023/01/14 07:38:46;;;;;;;15.95;4.28;;;5.40;99.90;;;;;;5049744;28;20041;-81
2023/01/14 07:41:13;;;;;;;27.00;4.93;;;5.40;99.90;;;;;;5050090;28;20091;-80
2023/01/14 07:43:39;;;;;;;25.55;5.05;;;5.50;99.90;;;;;;5050426;28;20044;-81
2023/01/14 07:46:07;;;;;;;28.52;5.68;;;5.50;99.90;;;;;;5050172;28;20044;-80
2023/01/14 07:48:33;;;;;;;29.75;5.93;;;5.50;99.90;;;;;;5050304;28;20098;-81
2023/01/14 07:51:02;;;;;;;21.90;4.55;;;5.50;99.90;;;;;;5049694;28;20044;-80
2023/01/14 07:53:27;;;;;;;21.27;4.85;;;5.60;99.90;;;;;;5033286;28;20083;-81
2023/01/14 07:55:53;;;;;;;24.23;5.35;;;5.60;99.90;;;;;;5033017;28;20036;-81
2023/01/14 07:58:21;;;;;;;19.85;4.85;;;5.70;99.90;;;;;;5050373;28;20032;-81
2023/01/14 08:00:47;;;;;;;20.98;5.15;;;5.70;99.90;;;;;;5049864;28;20045;-81
2023/01/14 08:03:13;;;;;;;28.90;5.45;;;5.60;99.90;;;;;;5049871;28;20079;-81
2023/01/14 08:05:38;;;;;;;26.15;5.32;;;5.70;99.90;;;;;;5049677;28;20510;-80
2023/01/14 08:08:04;;;;;;;22.35;4.97;;;5.70;99.90;;;;;;5049463;28;20052;-81
2023/01/14 08:10:29;;;;;;;25.50;5.43;;;5.70;99.90;;;;;;5047576;28;20048;-80
2023/01/14 08:12:55;;;;;;;26.60;5.63;;;5.70;99.90;;;;;;5036469;28;20040;-81
2023/01/14 08:15:20;;;;;;;26.05;5.38;;;5.70;99.90;;;;;;5043697;28;20042;-80
2023/01/14 08:17:46;;;;;;;22.27;4.43;;;5.80;99.90;;;;;;5053075;28;20136;-81
2023/01/14 08:20:12;;;;;;;28.95;4.97;;;5.80;99.90;;;;;;5036967;28;20036;-80
2023/01/14 08:22:37;;;;;;;19.52;5.22;;;5.80;99.90;;;;;;5051666;28;20037;-80
2023/01/14 08:25:04;;;;;;;28.85;5.00;;;5.80;99.90;;;;;;5051154;28;20040;-80
2023/01/14 08:27:30;;;;;;;15.35;4.43;;;5.80;99.90;;;;;;5034538;28;20128;-80
2023/01/14 08:29:56;;;;;;;27.65;5.60;;;5.80;99.90;;;;;;5051968;28;20129;-80
2023/01/14 08:32:23;;;;;;;26.88;4.97;;;5.70;99.90;;;;;;5052710;28;20041;-79
2023/01/14 08:34:48;;;;;;;21.70;4.82;;;5.70;99.90;;;;;;5053054;28;20403;-80
2023/01/14 08:37:14;;;;;;;21.95;5.70;;;5.70;99.90;;;;;;5051475;28;20031;-80
2023/01/14 08:39:40;;;;;;;22.73;4.70;;;5.70;99.90;;;;;;5052307;28;20033;-81
2023/01/14 08:42:05;;;;;;;22.33;4.38;;;5.70;99.90;;;;;;5035902;28;20033;-80
2023/01/14 08:44:31;;;;;;;22.58;4.18;;;5.70;99.90;;;;;;5052860;28;20360;-80
2023/01/14 08:46:56;;;;;;;22.67;4.28;;;5.70;99.90;;;;;;5052767;28;20044;-80
2023/01/14 08:49:22;;;;;;;20.13;4.47;;;5.70;99.90;;;;;;5052556;28;20115;-81
2023/01/14 08:51:49;;;;;;;19.42;4.13;;;5.70;99.90;;;;;;5038761;28;20037;-80
2023/01/14 08:54:15;;;;;;;25.02;4.72;;;5.70;99.90;;;;;;5053031;28;20033;-80
2023/01/14 08:56:40;;;;;;;18.80;3.78;;;5.80;99.90;;;;;;5052340;28;20037;-81
2023/01/14 08:59:06;;;;;;;18.85;3.70;;;5.70;99.90;;;;;;5051990;28;20029;-81
2023/01/14 09:01:31;;;;;;;18.17;3.45;;;5.70;99.90;;;;;;5052340;28;20040;-81
2023/01/14 09:03:57;;;;;;;19.80;3.70;;;5.50;99.90;;;;;;5052445;28;20379;-81
2023/01/14 09:06:23;;;;;;;19.17;4.40;;;5.70;99.90;;;;;;5052213;28;20071;-81
2023/01/14 09:17:15;;;;;;;20.85;3.90;;;5.70;99.90;;;;;;5053133;28;20037;-81
2023/01/14 09:19:54;;;;;;;19.70;4.20;;;5.70;99.90;;;;;;5051806;28;20114;-81
2023/01/14 09:22:23;;;;;;;24.75;3.78;;;5.70;99.90;;;;;;5051923;28;20044;-80
2023/01/14 09:24:50;;;;;;;20.35;3.72;;;5.80;99.90;;;;;;5051475;28;20041;-80
2023/01/14 09:27:16;;;;;;;22.55;5.13;;;5.70;99.90;;;;;;5051157;28;20044;-81
2023/01/14 09:29:41;;;;;;;21.13;3.80;;;5.80;99.90;;;;;;5051255;28;20067;-80
2023/01/14 09:32:11;;;;;;;18.77;3.38;;;5.70;99.90;;;;;;5051151;28;20503;-80
2023/01/14 09:34:41;;;;;;;17.52;3.72;;;5.70;99.90;;;;;;5051468;28;20037;-81
2023/01/14 09:37:10;;;;;;;18.60;3.58;;;5.70;99.90;;;;;;5050875;28;20040;-80
2023/01/14 09:39:36;;;;;;;16.63;4.13;;;5.70;99.90;;;;;;5039636;28;20037;-81
2023/01/14 09:42:06;;;;;;;15.13;3.17;;;5.80;99.90;;;;;;5032376;28;20037;-81
2023/01/14 09:44:32;;;;;;;14.57;3.17;;;5.70;99.90;;;;;;5045120;28;20439;-80
2023/01/14 09:46:58;;;;;;;17.30;3.58;;;5.70;99.90;;;;;;5040158;28;20063;-81
2023/01/14 09:49:26;;;;;;;16.98;3.45;;;5.70;99.90;;;;;;5042481;28;20483;-81
2023/01/14 09:52:13;;;;;;;13.82;3.10;;;5.70;99.90;;;;;;5031120;28;20112;-81
2023/01/14 09:54:53;;;;;;;14.02;3.25;;;5.70;99.90;;;;;;5049701;28;20121;-81
2023/01/14 09:57:28;;;;;;;14.93;3.55;;;5.70;99.90;;;;;;5050499;28;20044;-80
2023/01/14 10:00:32;;;;;;;11.50;2.80;;;5.80;99.90;;;;;;5050496;28;20037;-81
2023/01/14 10:03:06;;;;;;;13.98;3.17;;;5.80;99.90;;;;;;5033336;28;20059;-82
2023/01/14 10:05:33;;;;;;;10.10;2.67;;;5.80;99.90;;;;;;5046395;28;20038;-81
2023/01/14 10:08:13;;;;;;;14.02;2.75;;;5.80;99.90;;;;;;5014128;28;20790;-81
2023/01/14 10:10:41;;;;;;;12.98;2.95;;;5.90;99.90;;;;;;5048593;28;20036;-81
2023/01/14 10:13:30;;;;;;;10.23;2.97;;;5.90;99.90;;;;;;5033754;28;20045;-81
2023/01/14 10:15:59;;;;;;;8.40;2.88;;;5.90;99.90;;;;;;5050670;28;20025;-81
2023/01/14 10:18:42;;;;;;;10.43;2.40;;;5.90;99.90;;;;;;5039922;28;20037;-81
2023/01/14 10:21:25;;;;;;;9.60;2.60;;;5.90;99.90;;;;;;5014301;28;20051;-82
2023/01/14 10:23:50;;;;;;;8.50;2.50;;;6.00;99.90;;;;;;5037787;28;20112;-80
2023/01/14 10:26:18;;;;;;;8.05;2.45;;;6.00;99.90;;;;;;5042323;28;20073;-80
2023/01/14 10:28:48;;;;;;;5.75;2.40;;;6.00;99.90;;;;;;5049073;28;20039;-81
2023/01/14 10:31:20;;;;;;;6.25;2.17;;;6.10;99.90;;;;;;5053451;28;20442;-80
2023/01/14 10:33:46;;;;;;;4.13;1.85;;;6.10;99.90;;;;;;5050760;28;20045;-81
2023/01/14 10:36:19;;;;;;;6.60;1.88;;;6.20;99.90;;;;;;5050302;28;20529;-81
2023/01/14 10:38:45;;;;;;;7.68;2.40;;;6.20;99.90;;;;;;5049294;28;20041;-81
2023/01/14 10:41:12;;;;;;;8.13;2.55;;;6.30;99.90;;;;;;5018969;28;20037;-81
2023/01/14 10:43:42;;;;;;;5.85;3.00;;;6.30;99.90;;;;;;5050846;28;20048;-82
2023/01/14 10:46:21;;;;;;;5.80;2.80;;;6.40;99.90;;;;;;5049651;28;20037;-81
2023/01/14 10:48:53;;;;;;;7.30;2.72;;;6.40;99.90;;;;;;5049802;28;20048;-82
2023/01/14 10:51:47;;;;;;;6.95;2.17;;;6.40;99.90;;;;;;5050457;28;20051;-82
2023/01/14 10:54:17;;;;;;;7.65;2.33;;;6.40;99.90;;;;;;5033663;28;20163;-81
2023/01/14 10:56:47;;;;;;;7.07;2.25;;;6.50;99.90;;;;;;5029793;28;20041;-81
2023/01/14 10:59:28;;;;;;;4.40;1.88;;;6.50;99.90;;;;;;5029868;28;20368;-81
2023/01/14 11:01:55;;;;;;;4.75;1.98;;;6.50;99.90;;;;;;5048903;28;20505;-82
2023/01/14 11:04:26;;;;;;;7.97;2.20;;;6.60;99.90;;;;;;5049593;28;20037;-81
2023/01/14 11:06:51;;;;;;;7.40;1.70;;;6.60;99.90;;;;;;5033045;28;20410;-81
2023/01/14 11:09:21;;;;;;;3.92;1.83;;;6.60;99.90;;;;;;5049427;28;20035;-82
2023/01/14 11:11:46;;;;;;;4.97;2.15;;;6.70;99.90;;;;;;5033311;28;20510;-81
2023/01/14 11:14:24;;;;;;;4.97;2.15;;;6.60;99.90;;;;;;5033086;28;20090;-81
2023/01/14 11:16:50;;;;;;;6.13;3.35;;;6.70;99.90;;;;;;5050091;28;20079;-82
2023/01/14 11:19:15;;;;;;;8.38;3.03;;;6.60;99.90;;;;;;5035040;28;20064;-81
2023/01/14 11:21:43;;;;;;;7.05;3.40;;;6.60;99.90;;;;;;5029359;28;20048;-82
2023/01/14 11:24:35;;;;;;;5.65;2.33;;;6.70;99.90;;;;;;5028689;28;20038;-82
2023/01/14 11:27:13;;;;;;;5.65;2.80;;;6.70;99.90;;;;;;5025542;28;20061;-82
2023/01/14 11:29:54;;;;;;;5.70;2.22;;;6.70;99.90;;;;;;5040107;28;20094;-81
2023/01/14 11:32:27;;;;;;;10.52;4.15;;;6.70;99.90;;;;;;5043714;28;20388;-82
2023/01/14 11:34:55;;;;;;;4.22;2.53;;;6.70;99.90;;;;;;5040521;28;20045;-82
2023/01/14 11:37:34;;;;;;;7.13;3.83;;;6.70;99.90;;;;;;5054505;28;20060;-82
2023/01/14 11:40:01;;;;;;;6.22;2.63;;;6.70;99.90;;;;;;5043043;28;20044;-81
2023/01/14 11:42:26;;;;;;;8.15;2.75;;;6.70;99.90;;;;;;5050309;28;20055;-81
2023/01/14 11:45:00;;;;;;;5.53;2.20;;;6.70;99.90;;;;;;5048179;28;20113;-82
2023/01/14 11:47:26;;;;;;;6.65;3.42;;;6.70;99.90;;;;;;5030739;28;20069;-81
2023/01/14 11:50:15;;;;;;;5.85;3.70;;;6.70;99.90;;;;;;5048438;28;20044;-82
2023/01/14 11:52:41;;;;;;;5.43;2.03;;;6.70;99.90;;;;;;5053120;28;20510;-83
2023/01/14 11:55:14;;;;;;;6.18;2.30;;;6.80;99.90;;;;;;5053452;28;20108;-82
2023/01/14 11:57:42;;;;;;;5.95;2.03;;;6.80;99.90;;;;;;5037856;28;20084;-82
2023/01/14 12:00:11;;;;;;;8.77;2.95;;;6.80;99.90;;;;;;5034416;28;20499;-82
2023/01/14 12:02:40;;;;;;;6.20;2.90;;;6.80;99.90;;;;;;5052573;28;20036;-82
2023/01/14 12:05:15;;;;;;;5.30;1.90;;;6.80;99.90;;;;;;5052754;28;20087;-81
2023/01/14 12:07:45;;;;;;;4.25;2.35;;;6.80;99.90;;;;;;5039194;28;20064;-80
2023/01/14 12:10:22;;;;;;;4.60;1.90;;;6.80;99.90;;;;;;5045807;28;20089;-82
2023/01/14 12:19:12;;;;;;;4.45;1.90;;;6.80;99.90;;;;;;5030253;28;20094;-82
2023/01/14 12:21:43;;;;;;;4.07;1.63;;;6.90;99.90;;;;;;5040816;28;20045;-82
2023/01/14 12:24:21;;;;;;;3.78;1.70;;;6.90;99.90;;;;;;5035798;28;20111;-81
2023/01/14 12:26:48;;;;;;;3.63;1.70;;;6.90;99.90;;;;;;5052781;28;20072;-82
2023/01/14 12:29:19;;;;;;;7.35;1.63;;;6.90;99.90;;;;;;5052268;28;20033;-81
2023/01/14 12:31:52;;;;;;;4.70;2.35;;;7.00;99.90;;;;;;5044883;28;20049;-81
2023/01/14 12:34:26;;;;;;;3.50;2.20;;;7.00;99.90;;;;;;5046880;28;20037;-82
2023/01/14 12:37:17;;;;;;;7.32;2.70;;;7.00;99.90;;;;;;5036118;28;20284;-82
2023/01/14 12:45:41;;;;;;;3.13;1.45;;;7.10;99.90;;;;;;5052607;28;20049;-81
2023/01/14 12:45:54;;;;;;;2.78;1.60;;;7.10;99.90;;;;;;5052000;28;20095;-80
2023/01/14 12:48:23;;;;;;;4.65;1.58;;;7.20;99.90;;;;;;5051642;28;20033;-81
2023/01/14 12:50:51;;;;;;;3.55;1.50;;;7.20;99.90;;;;;;5052219;28;20077;-81
2023/01/14 12:53:28;;;;;;;4.30;1.50;;;7.20;99.90;;;;;;5035612;28;20071;-82
2023/01/14 12:55:58;;;;;;;5.22;1.63;;;7.30;99.90;;;;;;5023926;28;20037;-81
2023/01/14 12:58:27;;;;;;;4.03;1.88;;;7.30;99.90;;;;;;5051245;28;20064;-82
2023/01/14 13:01:01;;;;;;;4.43;1.70;;;7.40;99.90;;;;;;5051118;28;20034;-81
2023/01/14 13:03:32;;;;;;;4.75;1.65;;;7.50;99.90;;;;;;5052412;28;20086;-82
2023/01/14 13:06:05;;;;;;;6.03;1.60;;;7.50;99.90;;;;;;5052249;28;20037;-81
2023/01/14 13:08:34;;;;;;;3.05;1.42;;;7.50;99.90;;;;;;5035295;28;20045;-82
2023/01/14 13:11:07;;;;;;;2.58;1.40;;;7.60;99.90;;;;;;5051695;28;20045;-82
2023/01/14 13:13:34;;;;;;;2.38;1.60;;;7.60;99.90;;;;;;5045056;28;20044;-81
2023/01/14 13:16:03;;;;;;;3.25;1.73;;;7.70;99.90;;;;;;5031002;28;20025;-80
2023/01/14 13:18:34;;;;;;;1.70;1.20;;;7.70;99.90;;;;;;5031198;28;20042;-82
2023/01/14 13:21:08;;;;;;;3.72;1.40;;;7.70;99.90;;;;;;5031382;28;20033;-82
2023/01/14 13:23:36;;;;;;;4.65;1.50;;;7.80;99.90;;;;;;5029688;28;20033;-82
2023/01/14 13:26:17;;;;;;;3.97;1.30;;;7.80;99.90;;;;;;5036526;28;20073;-82
2023/01/14 13:29:05;;;;;;;3.25;1.27;;;7.90;99.90;;;;;;5049751;28;20041;-82
2023/01/14 13:31:34;;;;;;;1.95;1.10;;;8.00;99.90;;;;;;5034248;28;20114;-82
2023/01/14 13:34:21;;;;;;;3.15;1.25;;;8.00;99.90;;;;;;5050847;28;20453;-82
2023/01/14 13:36:59;;;;;;;2.97;1.10;;;8.00;99.90;;;;;;5051784;28;20040;-81
2023/01/14 13:39:25;;;;;;;2.47;1.00;;;8.10;99.90;;;;;;5034740;28;20048;-82
2023/01/14 13:41:52;;;;;;;3.53;1.40;;;8.10;99.90;;;;;;5051812;28;20243;-81
2023/01/14 13:44:37;;;;;;;1.80;0.80;;;8.20;99.90;;;;;;5047345;28;20068;-82
2023/01/14 13:47:18;;;;;;;2.47;1.00;;;8.20;99.90;;;;;;5048789;28;20063;-82